sensor_id;sensor_type;location;lat;lon;timestamp;P1;durP1;ratioP1;P2;durP2;ratioP2
43696;SDS011;29301;47.620;19.560;2023-05-27T00:01:46;0.40;;;0.28;;
43696;SDS011;29301;47.620;19.560;2023-05-27T00:04:12;0.30;;;0.20;;
43696;SDS011;29301;47.620;19.560;2023-05-27T00:06:37;0.40;;;0.28;;
43696;SDS011;29301;47.620;19.560;2023-05-27T00:09:03;0.30;;;0.20;;
43696;SDS011;29301;47.620;19.560;2023-05-27T00:11:29;0.38;;;0.20;;
43696;SDS011;29301;47.620;19.560;2023-05-27T00:13:55;0.30;;;0.20;;
43696;SDS011;29301;47.620;19.560;2023-05-27T00:16:20;0.40;;;0.28;;
43696;SDS011;29301;47.620;19.560;2023-05-27T00:18:46;0.30;;;0.20;;
43696;SDS011;29301;47.620;19.560;2023-05-27T00:21:13;0.30;;;0.25;;
43696;SDS011;29301;47.620;19.560;2023-05-27T00:23:39;0.30;;;0.20;;
43696;SDS011;29301;47.620;19.560;2023-05-27T00:26:06;0.40;;;0.20;;
43696;SDS011;29301;47.620;19.560;2023-05-27T00:28:32;0.40;;;0.30;;
43696;SDS011;29301;47.620;19.560;2023-05-27T00:30:58;0.40;;;0.28;;
43696;SDS011;29301;47.620;19.560;2023-05-27T00:33:23;0.40;;;0.20;;
43696;SDS011;29301;47.620;19.560;2023-05-27T00:35:49;0.30;;;0.20;;
43696;SDS011;29301;47.620;19.560;2023-05-27T00:38:15;0.40;;;0.28;;
43696;SDS011;29301;47.620;19.560;2023-05-27T00:40:40;0.30;;;0.20;;
43696;SDS011;29301;47.620;19.560;2023-05-27T00:43:06;0.30;;;0.20;;
43696;SDS011;29301;47.620;19.560;2023-05-27T00:45:32;0.40;;;0.30;;
43696;SDS011;29301;47.620;19.560;2023-05-27T00:47:58;0.30;;;0.20;;
43696;SDS011;29301;47.620;19.560;2023-05-27T00:50:27;0.30;;;0.20;;
43696;SDS011;29301;47.620;19.560;2023-05-27T00:52:54;0.40;;;0.20;;
43696;SDS011;29301;47.620;19.560;2023-05-27T00:55:23;0.30;;;0.20;;
43696;SDS011;29301;47.620;19.560;2023-05-27T00:57:49;0.30;;;0.20;;
43696;SDS011;29301;47.620;19.560;2023-05-27T01:00:18;0.30;;;0.20;;
43696;SDS011;29301;47.620;19.560;2023-05-27T01:02:44;0.30;;;0.20;;
43696;SDS011;29301;47.620;19.560;2023-05-27T01:05:10;0.30;;;0.20;;
43696;SDS011;29301;47.620;19.560;2023-05-27T01:07:45;0.30;;;0.20;;
43696;SDS011;29301;47.620;19.560;2023-05-27T01:10:36;0.30;;;0.20;;
43696;SDS011;29301;47.620;19.560;2023-05-27T01:13:55;0.30;;;0.20;;
43696;SDS011;29301;47.620;19.560;2023-05-27T01:15:54;0.40;;;0.30;;
43696;SDS011;29301;47.620;19.560;2023-05-27T01:18:30;0.32;;;0.22;;
43696;SDS011;29301;47.620;19.560;2023-05-27T01:21:05;0.40;;;0.30;;
43696;SDS011;29301;47.620;19.560;2023-05-27T01:23:34;0.30;;;0.25;;
43696;SDS011;29301;47.620;19.560;2023-05-27T01:26:03;0.47;;;0.30;;
43696;SDS011;29301;47.620;19.560;2023-05-27T01:28:30;0.40;;;0.30;;
43696;SDS011;29301;47.620;19.560;2023-05-27T01:30:59;0.30;;;0.20;;
43696;SDS011;29301;47.620;19.560;2023-05-27T01:33:35;0.40;;;0.30;;
43696;SDS011;29301;47.620;19.560;2023-05-27T01:36:05;0.40;;;0.30;;
43696;SDS011;29301;47.620;19.560;2023-05-27T01:38:37;0.30;;;0.30;;
43696;SDS011;29301;47.620;19.560;2023-05-27T01:41:07;0.30;;;0.20;;
43696;SDS011;29301;47.620;19.560;2023-05-27T01:43:34;0.30;;;0.20;;
43696;SDS011;29301;47.620;19.560;2023-05-27T01:46:02;0.40;;;0.20;;
43696;SDS011;29301;47.620;19.560;2023-05-27T01:48:28;0.30;;;0.20;;
43696;SDS011;29301;47.620;19.560;2023-05-27T01:50:53;0.30;;;0.20;;
43696;SDS011;29301;47.620;19.560;2023-05-27T01:53:19;0.40;;;0.30;;
43696;SDS011;29301;47.620;19.560;2023-05-27T01:55:45;0.30;;;0.25;;
43696;SDS011;29301;47.620;19.560;2023-05-27T01:58:11;0.40;;;0.30;;
43696;SDS011;29301;47.620;19.560;2023-05-27T02:00:36;0.40;;;0.30;;
43696;SDS011;29301;47.620;19.560;2023-05-27T02:03:02;0.30;;;0.20;;
43696;SDS011;29301;47.620;19.560;2023-05-27T02:05:28;0.30;;;0.20;;
43696;SDS011;29301;47.620;19.560;2023-05-27T02:07:54;0.30;;;0.20;;
43696;SDS011;29301;47.620;19.560;2023-05-27T02:10:20;0.30;;;0.20;;
43696;SDS011;29301;47.620;19.560;2023-05-27T02:12:46;0.40;;;0.30;;
43696;SDS011;29301;47.620;19.560;2023-05-27T02:15:13;0.40;;;0.30;;
43696;SDS011;29301;47.620;19.560;2023-05-27T02:17:38;0.30;;;0.20;;
43696;SDS011;29301;47.620;19.560;2023-05-27T02:20:04;0.40;;;0.30;;
43696;SDS011;29301;47.620;19.560;2023-05-27T02:22:31;0.30;;;0.20;;
43696;SDS011;29301;47.620;19.560;2023-05-27T02:24:56;0.30;;;0.20;;
43696;SDS011;29301;47.620;19.560;2023-05-27T02:27:22;0.35;;;0.22;;
43696;SDS011;29301;47.620;19.560;2023-05-27T02:29:47;0.40;;;0.30;;
43696;SDS011;29301;47.620;19.560;2023-05-27T02:32:13;0.40;;;0.30;;
43696;SDS011;29301;47.620;19.560;2023-05-27T02:34:39;0.30;;;0.30;;
43696;SDS011;29301;47.620;19.560;2023-05-27T02:37:06;0.40;;;0.30;;
43696;SDS011;29301;47.620;19.560;2023-05-27T02:39:31;0.30;;;0.30;;
43696;SDS011;29301;47.620;19.560;2023-05-27T02:41:57;0.30;;;0.30;;
43696;SDS011;29301;47.620;19.560;2023-05-27T02:44:23;0.30;;;0.30;;
43696;SDS011;29301;47.620;19.560;2023-05-27T02:46:48;0.40;;;0.30;;
43696;SDS011;29301;47.620;19.560;2023-05-27T02:49:14;0.40;;;0.30;;
43696;SDS011;29301;47.620;19.560;2023-05-27T02:51:41;0.40;;;0.30;;
43696;SDS011;29301;47.620;19.560;2023-05-27T02:54:07;0.30;;;0.20;;
43696;SDS011;29301;47.620;19.560;2023-05-27T02:56:33;0.30;;;0.30;;
43696;SDS011;29301;47.620;19.560;2023-05-27T02:58:58;0.40;;;0.22;;
43696;SDS011;29301;47.620;19.560;2023-05-27T03:01:24;0.30;;;0.20;;
43696;SDS011;29301;47.620;19.560;2023-05-27T03:03:50;0.40;;;0.30;;
43696;SDS011;29301;47.620;19.560;2023-05-27T03:06:16;0.30;;;0.20;;
43696;SDS011;29301;47.620;19.560;2023-05-27T03:08:42;0.40;;;0.30;;
43696;SDS011;29301;47.620;19.560;2023-05-27T03:11:07;0.30;;;0.20;;
43696;SDS011;29301;47.620;19.560;2023-05-27T03:13:33;0.30;;;0.20;;
43696;SDS011;29301;47.620;19.560;2023-05-27T03:15:58;0.30;;;0.22;;
43696;SDS011;29301;47.620;19.560;2023-05-27T03:18:25;0.40;;;0.30;;
43696;SDS011;29301;47.620;19.560;2023-05-27T03:20:50;0.40;;;0.30;;
43696;SDS011;29301;47.620;19.560;2023-05-27T03:23:16;0.30;;;0.30;;
43696;SDS011;29301;47.620;19.560;2023-05-27T03:25:42;0.30;;;0.30;;
43696;SDS011;29301;47.620;19.560;2023-05-27T03:28:08;0.30;;;0.30;;
43696;SDS011;29301;47.620;19.560;2023-05-27T03:30:33;0.40;;;0.30;;
43696;SDS011;29301;47.620;19.560;2023-05-27T03:33:00;0.30;;;0.30;;
43696;SDS011;29301;47.620;19.560;2023-05-27T03:35:26;0.30;;;0.30;;
43696;SDS011;29301;47.620;19.560;2023-05-27T03:37:52;0.30;;;0.30;;
43696;SDS011;29301;47.620;19.560;2023-05-27T03:40:18;0.30;;;0.20;;
43696;SDS011;29301;47.620;19.560;2023-05-27T03:42:43;0.40;;;0.30;;
43696;SDS011;29301;47.620;19.560;2023-05-27T03:45:09;0.40;;;0.30;;
43696;SDS011;29301;47.620;19.560;2023-05-27T03:47:35;0.30;;;0.30;;
43696;SDS011;29301;47.620;19.560;2023-05-27T03:50:01;0.38;;;0.30;;
43696;SDS011;29301;47.620;19.560;2023-05-27T03:52:28;0.40;;;0.30;;
43696;SDS011;29301;47.620;19.560;2023-05-27T03:54:53;0.40;;;0.30;;
43696;SDS011;29301;47.620;19.560;2023-05-27T03:57:19;0.30;;;0.30;;
43696;SDS011;29301;47.620;19.560;2023-05-27T03:59:45;0.30;;;0.30;;
43696;SDS011;29301;47.620;19.560;2023-05-27T04:02:11;0.40;;;0.30;;
43696;SDS011;29301;47.620;19.560;2023-05-27T04:04:37;0.40;;;0.30;;
43696;SDS011;29301;47.620;19.560;2023-05-27T04:07:03;0.38;;;0.30;;
43696;SDS011;29301;47.620;19.560;2023-05-27T04:09:28;0.40;;;0.30;;
43696;SDS011;29301;47.620;19.560;2023-05-27T04:11:54;0.30;;;0.30;;
43696;SDS011;29301;47.620;19.560;2023-05-27T04:14:20;0.40;;;0.30;;
43696;SDS011;29301;47.620;19.560;2023-05-27T04:16:46;0.30;;;0.20;;
43696;SDS011;29301;47.620;19.560;2023-05-27T04:19:13;0.40;;;0.30;;
43696;SDS011;29301;47.620;19.560;2023-05-27T04:21:38;0.30;;;0.20;;
43696;SDS011;29301;47.620;19.560;2023-05-27T04:24:04;0.30;;;0.30;;
43696;SDS011;29301;47.620;19.560;2023-05-27T04:26:30;0.40;;;0.30;;
43696;SDS011;29301;47.620;19.560;2023-05-27T04:28:57;0.40;;;0.30;;
43696;SDS011;29301;47.620;19.560;2023-05-27T04:31:25;0.40;;;0.30;;
43696;SDS011;29301;47.620;19.560;2023-05-27T04:33:53;0.32;;;0.30;;
43696;SDS011;29301;47.620;19.560;2023-05-27T04:36:20;0.30;;;0.20;;
43696;SDS011;29301;47.620;19.560;2023-05-27T04:38:50;0.40;;;0.30;;
43696;SDS011;29301;47.620;19.560;2023-05-27T04:41:16;0.40;;;0.30;;
43696;SDS011;29301;47.620;19.560;2023-05-27T04:43:46;0.40;;;0.30;;
43696;SDS011;29301;47.620;19.560;2023-05-27T04:46:13;0.40;;;0.20;;
43696;SDS011;29301;47.620;19.560;2023-05-27T04:48:39;0.35;;;0.25;;
43696;SDS011;29301;47.620;19.560;2023-05-27T04:51:04;0.30;;;0.30;;
43696;SDS011;29301;47.620;19.560;2023-05-27T04:53:30;0.30;;;0.20;;
43696;SDS011;29301;47.620;19.560;2023-05-27T04:55:57;0.40;;;0.30;;
43696;SDS011;29301;47.620;19.560;2023-05-27T04:58:23;0.30;;;0.30;;
43696;SDS011;29301;47.620;19.560;2023-05-27T05:00:48;0.40;;;0.30;;
43696;SDS011;29301;47.620;19.560;2023-05-27T05:03:18;0.40;;;0.30;;
43696;SDS011;29301;47.620;19.560;2023-05-27T05:05:50;0.40;;;0.30;;
43696;SDS011;29301;47.620;19.560;2023-05-27T05:08:17;0.40;;;0.30;;
43696;SDS011;29301;47.620;19.560;2023-05-27T05:10:46;0.40;;;0.30;;
43696;SDS011;29301;47.620;19.560;2023-05-27T05:13:12;0.30;;;0.30;;
43696;SDS011;29301;47.620;19.560;2023-05-27T05:15:39;0.30;;;0.30;;
43696;SDS011;29301;47.620;19.560;2023-05-27T05:18:05;0.30;;;0.30;;
43696;SDS011;29301;47.620;19.560;2023-05-27T05:20:30;0.30;;;0.30;;
43696;SDS011;29301;47.620;19.560;2023-05-27T05:22:57;0.30;;;0.20;;
43696;SDS011;29301;47.620;19.560;2023-05-27T05:25:23;0.30;;;0.20;;
43696;SDS011;29301;47.620;19.560;2023-05-27T05:27:49;0.30;;;0.30;;
43696;SDS011;29301;47.620;19.560;2023-05-27T05:30:15;0.30;;;0.30;;
43696;SDS011;29301;47.620;19.560;2023-05-27T05:32:41;0.30;;;0.30;;
43696;SDS011;29301;47.620;19.560;2023-05-27T05:35:07;0.30;;;0.30;;
43696;SDS011;29301;47.620;19.560;2023-05-27T05:37:33;0.40;;;0.30;;
43696;SDS011;29301;47.620;19.560;2023-05-27T05:39:58;0.40;;;0.30;;
43696;SDS011;29301;47.620;19.560;2023-05-27T05:42:24;0.30;;;0.30;;
43696;SDS011;29301;47.620;19.560;2023-05-27T05:44:52;0.30;;;0.20;;
43696;SDS011;29301;47.620;19.560;2023-05-27T05:47:18;0.30;;;0.20;;
43696;SDS011;29301;47.620;19.560;2023-05-27T05:49:44;0.30;;;0.30;;
43696;SDS011;29301;47.620;19.560;2023-05-27T05:52:10;0.30;;;0.30;;
43696;SDS011;29301;47.620;19.560;2023-05-27T05:54:35;0.40;;;0.30;;
43696;SDS011;29301;47.620;19.560;2023-05-27T05:57:01;0.30;;;0.20;;
43696;SDS011;29301;47.620;19.560;2023-05-27T05:59:27;0.30;;;0.30;;
43696;SDS011;29301;47.620;19.560;2023-05-27T06:01:53;0.40;;;0.20;;
43696;SDS011;29301;47.620;19.560;2023-05-27T06:04:19;0.30;;;0.20;;
43696;SDS011;29301;47.620;19.560;2023-05-27T06:06:45;0.30;;;0.20;;
43696;SDS011;29301;47.620;19.560;2023-05-27T06:09:11;0.30;;;0.20;;
43696;SDS011;29301;47.620;19.560;2023-05-27T06:11:36;0.40;;;0.30;;
43696;SDS011;29301;47.620;19.560;2023-05-27T06:14:02;0.30;;;0.20;;
43696;SDS011;29301;47.620;19.560;2023-05-27T06:16:28;0.30;;;0.20;;
43696;SDS011;29301;47.620;19.560;2023-05-27T06:18:54;0.40;;;0.30;;
43696;SDS011;29301;47.620;19.560;2023-05-27T06:21:20;0.40;;;0.30;;
43696;SDS011;29301;47.620;19.560;2023-05-27T06:23:46;0.30;;;0.20;;
43696;SDS011;29301;47.620;19.560;2023-05-27T06:26:12;0.30;;;0.20;;
43696;SDS011;29301;47.620;19.560;2023-05-27T06:28:37;0.30;;;0.30;;
43696;SDS011;29301;47.620;19.560;2023-05-27T06:31:03;0.40;;;0.20;;
43696;SDS011;29301;47.620;19.560;2023-05-27T06:33:29;0.35;;;0.20;;
43696;SDS011;29301;47.620;19.560;2023-05-27T06:35:54;0.30;;;0.20;;
43696;SDS011;29301;47.620;19.560;2023-05-27T06:38:20;0.38;;;0.20;;
43696;SDS011;29301;47.620;19.560;2023-05-27T06:40:46;0.28;;;0.20;;
43696;SDS011;29301;47.620;19.560;2023-05-27T06:43:12;0.30;;;0.20;;
43696;SDS011;29301;47.620;19.560;2023-05-27T06:45:37;0.28;;;0.20;;
43696;SDS011;29301;47.620;19.560;2023-05-27T06:48:03;0.30;;;0.20;;
43696;SDS011;29301;47.620;19.560;2023-05-27T06:50:29;0.40;;;0.20;;
43696;SDS011;29301;47.620;19.560;2023-05-27T06:52:54;0.30;;;0.20;;
43696;SDS011;29301;47.620;19.560;2023-05-27T06:55:20;0.40;;;0.20;;
43696;SDS011;29301;47.620;19.560;2023-05-27T06:57:46;0.35;;;0.20;;
43696;SDS011;29301;47.620;19.560;2023-05-27T07:00:11;0.30;;;0.20;;
43696;SDS011;29301;47.620;19.560;2023-05-27T07:02:37;0.28;;;0.20;;
43696;SDS011;29301;47.620;19.560;2023-05-27T07:05:03;0.30;;;0.20;;
43696;SDS011;29301;47.620;19.560;2023-05-27T07:07:29;0.32;;;0.20;;
43696;SDS011;29301;47.620;19.560;2023-05-27T07:09:55;0.30;;;0.20;;
43696;SDS011;29301;47.620;19.560;2023-05-27T07:12:20;0.20;;;0.20;;
43696;SDS011;29301;47.620;19.560;2023-05-27T07:14:46;0.28;;;0.20;;
43696;SDS011;29301;47.620;19.560;2023-05-27T07:17:12;0.20;;;0.20;;
43696;SDS011;29301;47.620;19.560;2023-05-27T07:19:38;0.25;;;0.20;;
43696;SDS011;29301;47.620;19.560;2023-05-27T07:22:03;0.20;;;0.20;;
43696;SDS011;29301;47.620;19.560;2023-05-27T07:24:29;0.20;;;0.20;;
43696;SDS011;29301;47.620;19.560;2023-05-27T07:26:56;0.10;;;0.10;;
43696;SDS011;29301;47.620;19.560;2023-05-27T07:29:21;0.17;;;0.17;;
43696;SDS011;29301;47.620;19.560;2023-05-27T07:31:47;0.20;;;0.20;;
43696;SDS011;29301;47.620;19.560;2023-05-27T07:34:13;0.20;;;0.20;;
43696;SDS011;29301;47.620;19.560;2023-05-27T07:36:38;0.20;;;0.20;;
43696;SDS011;29301;47.620;19.560;2023-05-27T07:39:04;0.10;;;0.10;;
43696;SDS011;29301;47.620;19.560;2023-05-27T07:41:30;0.20;;;0.20;;
43696;SDS011;29301;47.620;19.560;2023-05-27T07:43:56;0.10;;;0.10;;
43696;SDS011;29301;47.620;19.560;2023-05-27T07:46:22;0.13;;;0.13;;
43696;SDS011;29301;47.620;19.560;2023-05-27T07:48:47;0.10;;;0.10;;
43696;SDS011;29301;47.620;19.560;2023-05-27T07:51:14;0.10;;;0.10;;
43696;SDS011;29301;47.620;19.560;2023-05-27T07:53:40;0.10;;;0.10;;
43696;SDS011;29301;47.620;19.560;2023-05-27T07:56:06;0.10;;;0.10;;
43696;SDS011;29301;47.620;19.560;2023-05-27T07:58:31;0.10;;;0.10;;
43696;SDS011;29301;47.620;19.560;2023-05-27T08:00:57;0.10;;;0.10;;
43696;SDS011;29301;47.620;19.560;2023-05-27T08:03:23;0.10;;;0.10;;
43696;SDS011;29301;47.620;19.560;2023-05-27T08:05:48;0.10;;;0.10;;
43696;SDS011;29301;47.620;19.560;2023-05-27T08:08:15;0.20;;;0.20;;
43696;SDS011;29301;47.620;19.560;2023-05-27T08:10:40;0.10;;;0.10;;
43696;SDS011;29301;47.620;19.560;2023-05-27T08:13:06;0.20;;;0.20;;
43696;SDS011;29301;47.620;19.560;2023-05-27T08:15:31;0.10;;;0.10;;
43696;SDS011;29301;47.620;19.560;2023-05-27T08:17:57;0.10;;;0.10;;
43696;SDS011;29301;47.620;19.560;2023-05-27T08:20:23;0.10;;;0.10;;
43696;SDS011;29301;47.620;19.560;2023-05-27T08:22:48;0.10;;;0.10;;
43696;SDS011;29301;47.620;19.560;2023-05-27T08:25:14;0.10;;;0.10;;
43696;SDS011;29301;47.620;19.560;2023-05-27T08:27:45;0.10;;;0.10;;
43696;SDS011;29301;47.620;19.560;2023-05-27T08:30:14;0.10;;;0.10;;
43696;SDS011;29301;47.620;19.560;2023-05-27T08:32:40;0.10;;;0.10;;
43696;SDS011;29301;47.620;19.560;2023-05-27T08:35:07;0.10;;;0.10;;
43696;SDS011;29301;47.620;19.560;2023-05-27T08:37:33;0.10;;;0.10;;
43696;SDS011;29301;47.620;19.560;2023-05-27T08:39:59;0.10;;;0.10;;
43696;SDS011;29301;47.620;19.560;2023-05-27T08:42:26;0.10;;;0.10;;
43696;SDS011;29301;47.620;19.560;2023-05-27T08:44:51;0.10;;;0.10;;
43696;SDS011;29301;47.620;19.560;2023-05-27T08:47:17;0.10;;;0.10;;
43696;SDS011;29301;47.620;19.560;2023-05-27T08:49:44;0.10;;;0.10;;
43696;SDS011;29301;47.620;19.560;2023-05-27T08:52:10;0.10;;;0.10;;
43696;SDS011;29301;47.620;19.560;2023-05-27T08:54:38;0.10;;;0.10;;
43696;SDS011;29301;47.620;19.560;2023-05-27T08:57:07;0.10;;;0.10;;
43696;SDS011;29301;47.620;19.560;2023-05-27T08:59:37;0.10;;;0.10;;
43696;SDS011;29301;47.620;19.560;2023-05-27T09:02:04;0.10;;;0.10;;
43696;SDS011;29301;47.620;19.560;2023-05-27T09:04:37;0.10;;;0.10;;
43696;SDS011;29301;47.620;19.560;2023-05-27T09:07:07;0.10;;;0.10;;
43696;SDS011;29301;47.620;19.560;2023-05-27T09:09:33;0.10;;;0.10;;
43696;SDS011;29301;47.620;19.560;2023-05-27T09:11:59;0.10;;;0.10;;
43696;SDS011;29301;47.620;19.560;2023-05-27T09:14:28;0.10;;;0.10;;
43696;SDS011;29301;47.620;19.560;2023-05-27T09:16:55;0.10;;;0.10;;
43696;SDS011;29301;47.620;19.560;2023-05-27T09:19:21;0.10;;;0.10;;
43696;SDS011;29301;47.620;19.560;2023-05-27T09:21:48;0.10;;;0.10;;
43696;SDS011;29301;47.620;19.560;2023-05-27T09:24:22;0.10;;;0.10;;
43696;SDS011;29301;47.620;19.560;2023-05-27T09:26:52;0.08;;;0.08;;
43696;SDS011;29301;47.620;19.560;2023-05-27T09:29:19;0.10;;;0.10;;
43696;SDS011;29301;47.620;19.560;2023-05-27T09:31:48;0.10;;;0.10;;
43696;SDS011;29301;47.620;19.560;2023-05-27T09:34:16;0.10;;;0.10;;
43696;SDS011;29301;47.620;19.560;2023-05-27T09:36:43;0.10;;;0.10;;
43696;SDS011;29301;47.620;19.560;2023-05-27T09:39:13;0.10;;;0.10;;
43696;SDS011;29301;47.620;19.560;2023-05-27T09:41:40;0.10;;;0.10;;
43696;SDS011;29301;47.620;19.560;2023-05-27T09:44:06;0.10;;;0.10;;
43696;SDS011;29301;47.620;19.560;2023-05-27T09:46:33;0.10;;;0.10;;
43696;SDS011;29301;47.620;19.560;2023-05-27T09:48:59;0.10;;;0.10;;
43696;SDS011;29301;47.620;19.560;2023-05-27T09:51:26;0.10;;;0.10;;
43696;SDS011;29301;47.620;19.560;2023-05-27T09:53:55;0.10;;;0.10;;
43696;SDS011;29301;47.620;19.560;2023-05-27T09:56:28;0.10;;;0.10;;
43696;SDS011;29301;47.620;19.560;2023-05-27T09:58:54;0.10;;;0.10;;
43696;SDS011;29301;47.620;19.560;2023-05-27T10:01:25;0.10;;;0.10;;
43696;SDS011;29301;47.620;19.560;2023-05-27T10:03:53;0.10;;;0.10;;
43696;SDS011;29301;47.620;19.560;2023-05-27T10:06:22;0.10;;;0.10;;
43696;SDS011;29301;47.620;19.560;2023-05-27T10:08:52;0.00;;;0.00;;
43696;SDS011;29301;47.620;19.560;2023-05-27T10:11:18;0.10;;;0.10;;
43696;SDS011;29301;47.620;19.560;2023-05-27T10:13:44;0.10;;;0.10;;
43696;SDS011;29301;47.620;19.560;2023-05-27T10:16:20;0.10;;;0.10;;
43696;SDS011;29301;47.620;19.560;2023-05-27T10:18:47;0.10;;;0.10;;
43696;SDS011;29301;47.620;19.560;2023-05-27T10:21:18;0.10;;;0.10;;
43696;SDS011;29301;47.620;19.560;2023-05-27T10:23:52;0.10;;;0.10;;
43696;SDS011;29301;47.620;19.560;2023-05-27T10:26:31;0.10;;;0.10;;
43696;SDS011;29301;47.620;19.560;2023-05-27T10:29:19;0.10;;;0.10;;
43696;SDS011;29301;47.620;19.560;2023-05-27T10:31:52;0.10;;;0.10;;
43696;SDS011;29301;47.620;19.560;2023-05-27T10:34:18;0.10;;;0.10;;
43696;SDS011;29301;47.620;19.560;2023-05-27T10:36:46;0.10;;;0.10;;
43696;SDS011;29301;47.620;19.560;2023-05-27T10:39:23;0.10;;;0.10;;
43696;SDS011;29301;47.620;19.560;2023-05-27T10:41:50;0.10;;;0.10;;
43696;SDS011;29301;47.620;19.560;2023-05-27T10:44:33;0.10;;;0.10;;
43696;SDS011;29301;47.620;19.560;2023-05-27T10:49:26;0.17;;;0.17;;
43696;SDS011;29301;47.620;19.560;2023-05-27T10:52:10;0.10;;;0.10;;
43696;SDS011;29301;47.620;19.560;2023-05-27T10:54:38;0.10;;;0.10;;
43696;SDS011;29301;47.620;19.560;2023-05-27T10:57:05;0.10;;;0.10;;
43696;SDS011;29301;47.620;19.560;2023-05-27T11:02:15;0.10;;;0.10;;
43696;SDS011;29301;47.620;19.560;2023-05-27T11:04:41;0.10;;;0.10;;
43696;SDS011;29301;47.620;19.560;2023-05-27T11:07:07;0.10;;;0.10;;
43696;SDS011;29301;47.620;19.560;2023-05-27T11:09:46;0.10;;;0.10;;
43696;SDS011;29301;47.620;19.560;2023-05-27T11:12:14;0.10;;;0.10;;
43696;SDS011;29301;47.620;19.560;2023-05-27T11:14:54;0.10;;;0.10;;
43696;SDS011;29301;47.620;19.560;2023-05-27T11:17:21;0.10;;;0.10;;
43696;SDS011;29301;47.620;19.560;2023-05-27T11:19:47;0.10;;;0.10;;
43696;SDS011;29301;47.620;19.560;2023-05-27T11:22:14;0.10;;;0.10;;
43696;SDS011;29301;47.620;19.560;2023-05-27T11:24:41;0.10;;;0.10;;
43696;SDS011;29301;47.620;19.560;2023-05-27T11:27:11;0.10;;;0.10;;
43696;SDS011;29301;47.620;19.560;2023-05-27T11:29:38;0.10;;;0.10;;
43696;SDS011;29301;47.620;19.560;2023-05-27T11:32:05;0.10;;;0.10;;
43696;SDS011;29301;47.620;19.560;2023-05-27T11:34:35;0.10;;;0.10;;
43696;SDS011;29301;47.620;19.560;2023-05-27T11:37:01;0.10;;;0.10;;
43696;SDS011;29301;47.620;19.560;2023-05-27T11:39:31;0.10;;;0.10;;
43696;SDS011;29301;47.620;19.560;2023-05-27T11:41:57;0.10;;;0.10;;
43696;SDS011;29301;47.620;19.560;2023-05-27T11:44:24;0.10;;;0.10;;
43696;SDS011;29301;47.620;19.560;2023-05-27T11:46:51;0.10;;;0.10;;
43696;SDS011;29301;47.620;19.560;2023-05-27T11:49:22;0.10;;;0.10;;
43696;SDS011;29301;47.620;19.560;2023-05-27T11:51:51;0.10;;;0.10;;
43696;SDS011;29301;47.620;19.560;2023-05-27T11:54:20;0.10;;;0.10;;
43696;SDS011;29301;47.620;19.560;2023-05-27T11:56:48;0.10;;;0.10;;
43696;SDS011;29301;47.620;19.560;2023-05-27T11:59:15;0.10;;;0.10;;
43696;SDS011;29301;47.620;19.560;2023-05-27T12:01:41;0.10;;;0.10;;
43696;SDS011;29301;47.620;19.560;2023-05-27T12:04:07;0.10;;;0.10;;
43696;SDS011;29301;47.620;19.560;2023-05-27T12:06:33;0.10;;;0.10;;
43696;SDS011;29301;47.620;19.560;2023-05-27T12:09:01;0.10;;;0.10;;
43696;SDS011;29301;47.620;19.560;2023-05-27T12:11:28;0.00;;;0.00;;
43696;SDS011;29301;47.620;19.560;2023-05-27T12:13:54;0.10;;;0.10;;
43696;SDS011;29301;47.620;19.560;2023-05-27T12:16:19;0.10;;;0.10;;
43696;SDS011;29301;47.620;19.560;2023-05-27T12:18:45;0.10;;;0.10;;
43696;SDS011;29301;47.620;19.560;2023-05-27T12:21:11;0.10;;;0.10;;
43696;SDS011;29301;47.620;19.560;2023-05-27T12:23:37;0.10;;;0.10;;
43696;SDS011;29301;47.620;19.560;2023-05-27T12:26:03;0.10;;;0.10;;
43696;SDS011;29301;47.620;19.560;2023-05-27T12:28:29;0.10;;;0.10;;
43696;SDS011;29301;47.620;19.560;2023-05-27T12:30:55;0.10;;;0.10;;
43696;SDS011;29301;47.620;19.560;2023-05-27T12:33:20;0.10;;;0.10;;
43696;SDS011;29301;47.620;19.560;2023-05-27T12:35:47;0.10;;;0.10;;
43696;SDS011;29301;47.620;19.560;2023-05-27T12:38:12;0.10;;;0.10;;
43696;SDS011;29301;47.620;19.560;2023-05-27T12:40:38;0.10;;;0.10;;
43696;SDS011;29301;47.620;19.560;2023-05-27T12:43:04;0.10;;;0.10;;
43696;SDS011;29301;47.620;19.560;2023-05-27T12:45:30;0.10;;;0.10;;
43696;SDS011;29301;47.620;19.560;2023-05-27T12:47:56;0.10;;;0.10;;
43696;SDS011;29301;47.620;19.560;2023-05-27T12:50:23;0.10;;;0.10;;
43696;SDS011;29301;47.620;19.560;2023-05-27T12:52:49;0.10;;;0.10;;
43696;SDS011;29301;47.620;19.560;2023-05-27T12:55:16;0.10;;;0.10;;
43696;SDS011;29301;47.620;19.560;2023-05-27T12:57:44;0.10;;;0.10;;
43696;SDS011;29301;47.620;19.560;2023-05-27T13:00:14;0.10;;;0.10;;
43696;SDS011;29301;47.620;19.560;2023-05-27T13:02:40;0.10;;;0.10;;
43696;SDS011;29301;47.620;19.560;2023-05-27T13:05:07;0.10;;;0.10;;
43696;SDS011;29301;47.620;19.560;2023-05-27T13:07:34;0.10;;;0.10;;
43696;SDS011;29301;47.620;19.560;2023-05-27T13:10:00;0.10;;;0.10;;
43696;SDS011;29301;47.620;19.560;2023-05-27T13:12:28;0.10;;;0.10;;
43696;SDS011;29301;47.620;19.560;2023-05-27T13:14:54;0.10;;;0.10;;
43696;SDS011;29301;47.620;19.560;2023-05-27T13:17:20;0.10;;;0.10;;
43696;SDS011;29301;47.620;19.560;2023-05-27T13:19:47;0.10;;;0.10;;
43696;SDS011;29301;47.620;19.560;2023-05-27T13:22:12;0.10;;;0.10;;
43696;SDS011;29301;47.620;19.560;2023-05-27T13:24:39;0.10;;;0.10;;
43696;SDS011;29301;47.620;19.560;2023-05-27T13:27:05;0.10;;;0.10;;
43696;SDS011;29301;47.620;19.560;2023-05-27T13:29:31;0.10;;;0.10;;
43696;SDS011;29301;47.620;19.560;2023-05-27T13:31:57;0.10;;;0.10;;
43696;SDS011;29301;47.620;19.560;2023-05-27T13:34:23;0.10;;;0.10;;
43696;SDS011;29301;47.620;19.560;2023-05-27T13:36:49;0.10;;;0.10;;
43696;SDS011;29301;47.620;19.560;2023-05-27T13:39:14;0.10;;;0.10;;
43696;SDS011;29301;47.620;19.560;2023-05-27T13:41:40;0.10;;;0.10;;
43696;SDS011;29301;47.620;19.560;2023-05-27T13:44:06;0.10;;;0.10;;
43696;SDS011;29301;47.620;19.560;2023-05-27T13:46:31;0.10;;;0.10;;
43696;SDS011;29301;47.620;19.560;2023-05-27T13:48:57;0.10;;;0.10;;
43696;SDS011;29301;47.620;19.560;2023-05-27T13:51:23;0.10;;;0.10;;
43696;SDS011;29301;47.620;19.560;2023-05-27T13:53:49;0.10;;;0.10;;
43696;SDS011;29301;47.620;19.560;2023-05-27T13:56:14;0.10;;;0.10;;
43696;SDS011;29301;47.620;19.560;2023-05-27T13:58:40;0.10;;;0.10;;
43696;SDS011;29301;47.620;19.560;2023-05-27T14:01:06;0.10;;;0.10;;
43696;SDS011;29301;47.620;19.560;2023-05-27T14:03:32;0.10;;;0.10;;
43696;SDS011;29301;47.620;19.560;2023-05-27T14:05:57;0.10;;;0.10;;
43696;SDS011;29301;47.620;19.560;2023-05-27T14:08:23;0.10;;;0.10;;
43696;SDS011;29301;47.620;19.560;2023-05-27T14:10:49;0.10;;;0.10;;
43696;SDS011;29301;47.620;19.560;2023-05-27T14:13:14;0.10;;;0.10;;
43696;SDS011;29301;47.620;19.560;2023-05-27T14:15:40;0.10;;;0.10;;
43696;SDS011;29301;47.620;19.560;2023-05-27T14:18:06;0.10;;;0.10;;
43696;SDS011;29301;47.620;19.560;2023-05-27T14:20:32;0.10;;;0.10;;
43696;SDS011;29301;47.620;19.560;2023-05-27T14:22:59;0.10;;;0.10;;
43696;SDS011;29301;47.620;19.560;2023-05-27T14:25:27;0.10;;;0.10;;
43696;SDS011;29301;47.620;19.560;2023-05-27T14:27:53;0.10;;;0.10;;
43696;SDS011;29301;47.620;19.560;2023-05-27T14:30:18;0.10;;;0.10;;
43696;SDS011;29301;47.620;19.560;2023-05-27T14:32:44;0.10;;;0.10;;
43696;SDS011;29301;47.620;19.560;2023-05-27T14:35:10;0.10;;;0.10;;
43696;SDS011;29301;47.620;19.560;2023-05-27T14:37:36;0.10;;;0.10;;